createdAt,value
2022-08-14T00:04:56.799Z,100.00
2022-08-14T00:10:49.411Z,100.00
2022-08-14T00:15:29.695Z,100.00
2022-08-14T00:20:35.763Z,100.00
2022-08-14T00:25:59.243Z,100.00
2022-08-14T00:31:07.843Z,100.00
2022-08-14T00:36:37.635Z,100.00
2022-08-14T00:41:33.363Z,100.00
2022-08-14T00:46:36.609Z,100.00
2022-08-14T00:51:39.760Z,100.00
2022-08-14T00:56:42.929Z,100.00
2022-08-14T01:01:46.045Z,100.00
2022-08-14T01:06:52.018Z,100.00
2022-08-14T01:12:03.528Z,100.00
2022-08-14T01:17:05.392Z,100.00
2022-08-14T01:22:12.299Z,100.00
2022-08-14T01:27:24.710Z,100.00
2022-08-14T01:32:26.702Z,100.00
2022-08-14T01:37:31.671Z,100.00
2022-08-14T01:42:35.996Z,100.00
2022-08-14T01:47:38.976Z,100.00
2022-08-14T01:52:58.664Z,100.00
2022-08-14T01:58:18.641Z,100.00
2022-08-14T02:03:29.786Z,100.00
2022-08-14T02:08:35.482Z,100.00
2022-08-14T02:13:38.053Z,100.00
2022-08-14T02:18:40.039Z,100.00
2022-08-14T02:23:43.009Z,100.00
2022-08-14T02:28:57.547Z,100.00
2022-08-14T02:34:05.851Z,100.00
2022-08-14T02:39:23.322Z,100.00
2022-08-14T02:44:29.462Z,100.00
2022-08-14T02:49:33.995Z,100.00
2022-08-14T02:54:36.045Z,100.00
2022-08-14T02:59:40.284Z,100.00
2022-08-14T03:04:44.870Z,100.00
2022-08-14T03:10:27.041Z,100.00
2022-08-14T03:15:16.153Z,100.00
2022-08-14T03:20:18.691Z,100.00
2022-08-14T03:25:23.878Z,100.00
2022-08-14T03:30:39.274Z,100.00
2022-08-14T03:36:05.727Z,100.00
2022-08-14T03:41:03.937Z,100.00
2022-08-14T03:46:10.169Z,100.00
2022-08-14T03:51:28.811Z,100.00
2022-08-14T03:56:30.910Z,100.00
2022-08-14T04:01:41.512Z,100.00
2022-08-14T04:06:48.508Z,100.00
2022-08-14T04:11:50.959Z,100.00
2022-08-14T04:16:52.536Z,100.00
2022-08-14T04:22:03.234Z,100.00
2022-08-14T04:27:17.081Z,100.00
2022-08-14T04:32:57.723Z,100.00
2022-08-14T04:37:59.648Z,100.00
2022-08-14T04:43:20.848Z,100.00
2022-08-14T04:48:39.048Z,100.00
2022-08-14T04:53:47.347Z,100.00
2022-08-14T04:58:57.895Z,100.00
2022-08-14T05:03:59.510Z,100.00
2022-08-14T05:09:01.482Z,100.00
2022-08-14T05:14:16.795Z,100.00
2022-08-14T05:21:54.260Z,100.00
2022-08-14T06:24:44.126Z,100.00
2022-08-14T06:29:45.762Z,100.00
2022-08-14T06:35:09.702Z,100.00
2022-08-14T06:40:16.556Z,100.00
2022-08-14T06:45:28.314Z,100.00
2022-08-14T06:50:31.560Z,100.00
2022-08-14T06:55:37.164Z,100.00
2022-08-14T07:01:06.266Z,100.00
2022-08-14T07:06:11.857Z,100.00
2022-08-14T07:11:30.065Z,100.00
2022-08-14T07:16:33.934Z,100.00
2022-08-14T07:21:37.231Z,100.00
2022-08-14T07:26:40.226Z,100.00
2022-08-14T07:31:42.817Z,100.00
2022-08-14T07:36:53.631Z,100.00
2022-08-14T07:41:59.886Z,100.00
2022-08-14T07:47:04.179Z,100.00
2022-08-14T07:52:07.440Z,100.00
2022-08-14T07:57:12.091Z,100.00
2022-08-14T08:02:18.796Z,100.00
2022-08-14T08:07:22.852Z,100.00
2022-08-14T08:12:29.714Z,100.00
2022-08-14T08:17:34.789Z,100.00
2022-08-14T08:22:43.366Z,100.00
2022-08-14T08:28:08.911Z,100.00
2022-08-14T08:33:23.482Z,100.00
2022-08-14T08:39:17.659Z,100.00
2022-08-14T08:43:51.115Z,100.00
2022-08-14T08:53:59.433Z,100.00
2022-08-14T08:59:01.078Z,100.00
2022-08-14T09:04:07.574Z,100.00
2022-08-14T09:09:33.988Z,98.95
2022-08-14T09:14:53.333Z,99.98
2022-08-14T09:19:55.458Z,95.61
2022-08-14T09:24:57.172Z,94.96
2022-08-14T09:29:58.560Z,94.41
2022-08-14T09:35:00.579Z,92.53
2022-08-14T09:40:10.128Z,87.13
2022-08-14T09:45:24.224Z,85.61
2022-08-14T09:50:30.704Z,83.31
2022-08-14T09:55:42.667Z,84.05
2022-08-14T10:00:52.826Z,78.66
2022-08-14T10:06:04.569Z,77.09
2022-08-14T10:11:19.341Z,76.00
2022-08-14T10:16:33.239Z,70.33
2022-08-14T10:21:38.708Z,71.09
2022-08-14T10:27:01.218Z,72.73
2022-08-14T10:32:03.893Z,68.43
2022-08-14T10:37:22.911Z,64.62
2022-08-14T10:42:38.882Z,65.12
2022-08-14T10:48:08.261Z,61.60
2022-08-14T10:53:05.722Z,63.59
2022-08-14T10:58:13.976Z,59.79
2022-08-14T11:03:26.813Z,56.12
2022-08-14T11:08:40.514Z,54.39
2022-08-14T11:13:46.637Z,54.65
2022-08-14T11:18:50.964Z,52.73
2022-08-14T11:23:57.283Z,52.44
2022-08-14T11:29:00.222Z,50.80
2022-08-14T11:34:01.698Z,52.29
2022-08-14T11:39:03.320Z,48.72
2022-08-14T11:44:17.683Z,52.23
2022-08-14T11:49:35.021Z,51.20
2022-08-14T11:54:37.462Z,48.44
2022-08-14T11:59:44.274Z,49.28
2022-08-14T12:04:52.992Z,44.81
2022-08-14T12:09:56.220Z,46.33
2022-08-14T12:15:00.056Z,42.01
2022-08-14T12:20:05.913Z,44.32
2022-08-14T12:25:12.515Z,43.79
2022-08-14T12:30:20.797Z,41.65
2022-08-14T12:35:25.693Z,44.54
2022-08-14T12:40:28.856Z,42.88
2022-08-14T12:45:33.616Z,41.57
2022-08-14T12:50:36.067Z,42.10
2022-08-14T12:56:18.731Z,41.49
2022-08-14T13:01:17.182Z,40.31
2022-08-14T13:06:27.397Z,41.60
2022-08-14T13:11:34.454Z,41.08
2022-08-14T13:16:38.601Z,40.54
2022-08-14T13:21:58.575Z,41.22
2022-08-14T13:27:04.906Z,42.79
2022-08-14T13:32:09.434Z,42.28
2022-08-14T13:37:11.179Z,41.54
2022-08-14T13:42:17.734Z,43.46
2022-08-14T13:47:29.699Z,41.37
2022-08-14T13:52:54.791Z,44.73
2022-08-14T13:58:02.939Z,44.24
2022-08-14T14:03:08.724Z,42.97
2022-08-14T14:08:19.048Z,45.14
2022-08-14T14:13:32.747Z,43.38
2022-08-14T14:18:35.730Z,47.50
2022-08-14T14:23:44.929Z,46.99
2022-08-14T14:28:51.619Z,46.28
2022-08-14T14:33:58.192Z,46.11
2022-08-14T14:39:03.783Z,44.67
2022-08-14T14:44:06.854Z,44.50
2022-08-14T14:49:14.814Z,44.80
2022-08-14T14:54:17.816Z,46.84
2022-08-14T14:59:20.207Z,45.08
2022-08-14T15:04:21.705Z,45.08
2022-08-14T15:09:23.720Z,48.34
2022-08-14T15:14:55.497Z,46.80
2022-08-14T15:19:56.277Z,45.50
2022-08-14T15:24:58.706Z,47.24
2022-08-14T15:30:00.624Z,48.32
2022-08-14T15:35:02.506Z,47.20
2022-08-14T15:40:05.625Z,48.68
2022-08-14T15:45:12.870Z,46.32
2022-08-14T15:50:16.539Z,48.46
2022-08-14T15:55:23.167Z,48.35
2022-08-14T16:00:49.682Z,48.41
2022-08-14T16:05:51.708Z,49.14
2022-08-14T16:10:59.117Z,47.11
2022-08-14T16:16:01.011Z,47.15
2022-08-14T16:21:22.564Z,50.05
2022-08-14T16:26:29.963Z,52.86
2022-08-14T16:31:39.476Z,49.68
2022-08-14T16:36:50.609Z,52.27
2022-08-14T16:41:52.706Z,55.52
2022-08-14T16:46:57.362Z,53.29
2022-08-14T16:51:59.321Z,54.88
2022-08-14T16:57:16.411Z,54.94
2022-08-14T17:02:18.872Z,54.65
2022-08-14T17:07:20.429Z,55.27
2022-08-14T17:12:35.221Z,62.19
2022-08-14T17:17:40.012Z,58.90
2022-08-14T17:22:52.231Z,59.18
2022-08-14T17:28:51.181Z,57.29
2022-08-14T17:33:44.098Z,64.25
2022-08-14T17:39:02.731Z,59.69
2022-08-14T17:44:21.849Z,64.21
2022-08-14T17:49:40.398Z,66.86
2022-08-14T17:54:47.710Z,82.35
2022-08-14T17:59:55.531Z,86.11
2022-08-14T18:05:03.066Z,85.00
2022-08-14T18:10:52.905Z,85.85
2022-08-14T18:15:37.011Z,87.05
2022-08-14T18:21:39.879Z,96.92
2022-08-14T18:26:04.843Z,99.27
2022-08-14T18:31:22.798Z,99.11
2022-08-14T18:36:47.937Z,100.00
2022-08-14T18:41:52.015Z,100.00
2022-08-14T18:47:10.088Z,100.00
2022-08-14T18:52:18.647Z,100.00
2022-08-14T18:57:20.901Z,100.00
2022-08-14T19:02:30.487Z,100.00
2022-08-14T19:07:34.087Z,100.00
2022-08-14T19:12:56.759Z,100.00
2022-08-14T19:18:15.029Z,100.00
2022-08-14T19:23:21.296Z,100.00
2022-08-14T19:28:31.177Z,100.00
2022-08-14T19:33:47.600Z,100.00
2022-08-14T19:38:59.841Z,100.00
2022-08-14T19:44:10.660Z,100.00
2022-08-14T19:49:14.336Z,100.00
2022-08-14T19:54:29.516Z,100.00
2022-08-14T19:59:36.630Z,100.00
2022-08-14T20:05:03.768Z,100.00
2022-08-14T20:11:07.227Z,100.00
2022-08-14T20:15:47.666Z,100.00
2022-08-14T20:20:53.813Z,100.00
2022-08-14T20:25:56.502Z,100.00
2022-08-14T20:31:18.702Z,100.00
2022-08-14T20:36:29.264Z,100.00
2022-08-14T20:41:30.885Z,100.00
2022-08-14T20:46:38.774Z,100.00
2022-08-14T20:51:54.605Z,100.00
2022-08-14T20:57:21.703Z,100.00
2022-08-14T21:02:46.486Z,100.00
2022-08-14T21:07:56.037Z,100.00
2022-08-14T21:14:08.774Z,100.00
2022-08-14T21:18:24.670Z,100.00
2022-08-14T21:23:32.618Z,100.00
2022-08-14T21:28:35.804Z,100.00
2022-08-14T21:33:42.901Z,100.00
2022-08-14T21:38:46.133Z,100.00
2022-08-14T21:43:48.265Z,100.00
2022-08-14T21:48:50.644Z,100.00
2022-08-14T21:53:58.654Z,100.00
2022-08-14T21:59:04.485Z,100.00
2022-08-14T22:04:33.407Z,100.00
2022-08-14T22:09:36.402Z,100.00
2022-08-14T22:14:43.801Z,100.00
2022-08-14T22:19:54.331Z,100.00
2022-08-14T22:24:59.965Z,100.00
2022-08-14T22:30:04.103Z,100.00
2022-08-14T22:35:09.084Z,100.00
2022-08-14T22:40:16.949Z,100.00
2022-08-14T22:45:36.335Z,100.00
2022-08-14T22:50:53.170Z,100.00
2022-08-14T22:55:55.172Z,100.00
2022-08-14T23:00:56.788Z,100.00
2022-08-14T23:05:59.202Z,100.00
2022-08-14T23:11:01.807Z,100.00
2022-08-14T23:16:04.674Z,100.00
2022-08-14T23:21:10.094Z,100.00
2022-08-14T23:26:48.148Z,100.00
2022-08-14T23:31:35.878Z,100.00
2022-08-14T23:36:53.094Z,100.00
2022-08-14T23:41:56.876Z,100.00
2022-08-14T23:47:10.654Z,100.00
2022-08-14T23:52:51.605Z,100.00
2022-08-14T23:57:34.066Z,100.00
